Glad Valley, South Dakota
Current Conditions -  °F | °C
As of 6:53 AM on Tuesday 21 Oct 2014 (Local Time) from KHEI Reporting Station
Clear Clear  
Wind Chill: 33°   Ceiling: Unl
Heat Index: 37°   Visibility: 10mi
Dew Point: 34°   Wind: 5mph
Humidity: 89%   Direction: 100°E
Pressure: 29.79"   Gusts: NA
Location:  45.4°N, 101.78°W
Report Text: KHEI 211253Z AUTO 10004KT 10SM CLR 03/01 A2979 RMK AO2 SLP092 T00280011
Loading
Personal Weather Stations






























Interactive Weather Map
Tropical Storm Tracking
New forecast layout! Learn more

10-Day Weather Forecast

Advertisements
Track Severe Weather on mobile